createdAt,value
2018-12-24T00:03:01.502Z,270
2018-12-24T00:08:01.569Z,270
2018-12-24T00:13:02.112Z,45
2018-12-24T00:18:02.268Z,45
2018-12-24T00:23:01.855Z,0
2018-12-24T00:28:01.621Z,0
2018-12-24T00:33:02.350Z,68
2018-12-24T00:38:02.156Z,68
2018-12-24T00:43:01.985Z,0
2018-12-24T00:48:01.853Z,0
2018-12-24T00:53:01.749Z,45
2018-12-24T00:58:01.587Z,45
2018-12-24T01:03:01.482Z,45
2018-12-24T01:08:01.440Z,45
2018-12-24T01:13:01.417Z,315
2018-12-24T01:18:02.208Z,315
2018-12-24T01:23:01.796Z,0
2018-12-24T01:28:01.635Z,0
2018-12-24T01:33:01.374Z,22
2018-12-24T01:38:01.432Z,22
2018-12-24T01:43:02.160Z,315
2018-12-24T01:48:01.776Z,315
2018-12-24T01:53:01.671Z,0
2018-12-24T01:58:02.146Z,0
2018-12-24T02:03:01.758Z,315
2018-12-24T02:08:02.101Z,315
2018-12-24T02:13:01.402Z,0
2018-12-24T02:18:01.487Z,0
2018-12-24T02:23:02.224Z,68
2018-12-24T02:28:01.885Z,68
2018-12-24T02:33:01.842Z,315
2018-12-24T02:38:01.850Z,315
2018-12-24T02:43:01.525Z,0
2018-12-24T02:48:01.589Z,0
2018-12-24T02:53:01.627Z,315
2018-12-24T02:58:02.287Z,315
2018-12-24T03:03:01.979Z,0
2018-12-24T03:08:02.227Z,0
2018-12-24T03:13:03.105Z,45
2018-12-24T03:18:02.186Z,45
2018-12-24T03:23:01.873Z,0
2018-12-24T03:28:01.531Z,0
2018-12-24T03:33:02.261Z,0
2018-12-24T03:38:01.885Z,0
2018-12-24T03:43:01.646Z,315
2018-12-24T03:48:02.311Z,315
2018-12-24T03:53:02.194Z,0
2018-12-24T03:58:01.751Z,0
2018-12-24T04:03:01.998Z,315
2018-12-24T04:08:02.097Z,315
2018-12-24T04:13:01.857Z,315
2018-12-24T04:18:01.778Z,315
2018-12-24T04:23:02.462Z,315
2018-12-24T04:28:02.115Z,315
2018-12-24T04:33:02.028Z,315
2018-12-24T04:38:01.879Z,315
2018-12-24T04:43:01.785Z,338
2018-12-24T04:48:01.761Z,338
2018-12-24T04:53:02.468Z,315
2018-12-24T04:58:02.165Z,315
2018-12-24T05:03:01.990Z,22
2018-12-24T05:08:01.856Z,22
2018-12-24T05:13:01.851Z,0
2018-12-24T05:18:02.028Z,0
2018-12-24T05:23:01.563Z,315
2018-12-24T05:28:02.541Z,315
2018-12-24T05:33:02.534Z,315
2018-12-24T05:38:01.741Z,315
2018-12-24T05:43:01.794Z,315
2018-12-24T05:48:01.894Z,315
2018-12-24T05:53:02.576Z,315
2018-12-24T05:58:02.397Z,315
2018-12-24T06:03:02.404Z,315
2018-12-24T06:08:02.031Z,315
2018-12-24T06:13:02.023Z,338
2018-12-24T06:18:01.867Z,338
2018-12-24T06:23:02.553Z,338
2018-12-24T06:28:02.192Z,338
2018-12-24T06:33:01.890Z,338
2018-12-24T06:38:02.041Z,338
2018-12-24T06:43:01.716Z,338
2018-12-24T06:48:02.502Z,338
2018-12-24T06:53:02.368Z,338
2018-12-24T06:58:01.985Z,338
2018-12-24T07:03:02.513Z,225
2018-12-24T07:08:02.376Z,225
2018-12-24T07:13:02.489Z,292
2018-12-24T07:18:02.575Z,292
2018-12-24T07:23:02.106Z,292
2018-12-24T07:28:01.802Z,292
2018-12-24T07:33:02.652Z,270
2018-12-24T07:38:03.092Z,270
2018-12-24T07:43:01.891Z,292
2018-12-24T07:48:02.473Z,292
2018-12-24T07:53:02.185Z,292
2018-12-24T07:58:02.655Z,292
2018-12-24T08:03:02.322Z,292
2018-12-24T08:08:02.401Z,292
2018-12-24T08:13:01.958Z,315
2018-12-24T08:18:02.664Z,315
2018-12-24T08:23:02.334Z,315
2018-12-24T08:28:02.603Z,315
2018-12-24T08:33:02.284Z,292
2018-12-24T08:38:02.144Z,292
2018-12-24T08:43:02.752Z,292
2018-12-24T08:48:02.579Z,292
2018-12-24T08:53:02.106Z,338
2018-12-24T08:58:01.894Z,338
2018-12-24T09:03:02.699Z,315
2018-12-24T09:08:02.597Z,315
2018-12-24T09:13:02.336Z,315
2018-12-24T09:18:02.309Z,315
2018-12-24T09:23:02.774Z,315
2018-12-24T09:28:02.473Z,315
2018-12-24T09:33:02.331Z,315
2018-12-24T09:38:02.098Z,315
2018-12-24T09:43:01.928Z,292
2018-12-24T09:48:02.844Z,292
2018-12-24T09:53:02.668Z,315
2018-12-24T09:58:02.306Z,315
2018-12-24T10:03:02.927Z,315
2018-12-24T10:08:02.460Z,315
2018-12-24T10:13:02.094Z,315
2018-12-24T10:18:02.805Z,315
2018-12-24T10:23:02.495Z,315
2018-12-24T10:28:02.130Z,315
2018-12-24T10:33:02.111Z,292
2018-12-24T10:38:02.154Z,292
2018-12-24T10:43:02.081Z,292
2018-12-24T10:48:01.998Z,292
2018-12-24T10:53:02.924Z,292
2018-12-24T10:58:02.528Z,292
2018-12-24T11:03:02.472Z,270
2018-12-24T11:08:02.558Z,270
2018-12-24T11:13:02.315Z,315
2018-12-24T11:18:02.184Z,315
2018-12-24T11:23:02.741Z,315
2018-12-24T11:28:02.486Z,315
2018-12-24T11:33:02.287Z,315
2018-12-24T11:38:02.219Z,315
2018-12-24T11:43:02.957Z,292
2018-12-24T11:48:02.779Z,292
2018-12-24T11:53:02.418Z,292
2018-12-24T11:58:02.088Z,292
2018-12-24T12:03:02.814Z,270
2018-12-24T12:08:02.742Z,270
2018-12-24T12:13:02.546Z,270
2018-12-24T12:18:02.374Z,270
2018-12-24T12:23:02.904Z,270
2018-12-24T12:28:02.683Z,270
2018-12-24T12:33:02.297Z,270
2018-12-24T12:38:02.409Z,270
2018-12-24T12:43:03.058Z,270
2018-12-24T12:48:02.751Z,270
2018-12-24T12:53:02.616Z,270
2018-12-24T12:58:02.359Z,270
2018-12-24T13:03:02.192Z,202
2018-12-24T13:08:02.309Z,202
2018-12-24T13:13:02.365Z,270
2018-12-24T13:18:02.938Z,270
2018-12-24T13:23:02.614Z,270
2018-12-24T13:28:02.187Z,270
2018-12-24T13:33:02.988Z,248
2018-12-24T13:38:02.808Z,248
2018-12-24T13:43:02.696Z,225
2018-12-24T13:48:02.557Z,225
2018-12-24T13:53:02.294Z,270
2018-12-24T13:58:02.098Z,270
2018-12-24T14:03:02.485Z,225
2018-12-24T14:08:02.382Z,225
2018-12-24T14:13:03.191Z,225
2018-12-24T14:18:03.068Z,225
2018-12-24T14:23:02.819Z,225
2018-12-24T14:28:03.009Z,225
2018-12-24T14:33:02.935Z,225
2018-12-24T14:38:02.826Z,225
2018-12-24T14:43:02.481Z,225
2018-12-24T14:48:03.092Z,225
2018-12-24T14:53:02.962Z,225
2018-12-24T14:58:02.619Z,225
2018-12-24T15:03:02.801Z,225
2018-12-24T15:08:02.935Z,225
2018-12-24T15:13:03.133Z,225
2018-12-24T15:18:02.983Z,225
2018-12-24T15:23:02.499Z,225
2018-12-24T15:28:03.232Z,225
2018-12-24T15:33:03.093Z,248
2018-12-24T15:38:02.740Z,248
2018-12-24T15:43:02.470Z,270
2018-12-24T15:48:03.146Z,270
2018-12-24T15:53:02.764Z,270
2018-12-24T15:58:02.688Z,270
2018-12-24T16:03:02.517Z,270
2018-12-24T16:08:03.025Z,270
2018-12-24T16:13:02.649Z,202
2018-12-24T16:18:02.486Z,202
2018-12-24T16:23:03.109Z,270
2018-12-24T16:28:02.680Z,270
2018-12-24T16:33:02.587Z,270
2018-12-24T16:38:03.439Z,270
2018-12-24T16:43:03.148Z,225
2018-12-24T16:48:03.110Z,225
2018-12-24T16:53:02.747Z,248
2018-12-24T16:58:02.647Z,248
2018-12-24T17:03:02.576Z,248
2018-12-24T17:08:03.081Z,248
2018-12-24T17:13:02.619Z,270
2018-12-24T17:18:03.280Z,270
2018-12-24T17:23:02.935Z,270
2018-12-24T17:28:02.566Z,270
2018-12-24T17:33:03.182Z,248
2018-12-24T17:38:02.952Z,248
2018-12-24T17:43:02.563Z,270
2018-12-24T17:48:03.342Z,270
2018-12-24T17:53:03.287Z,270
2018-12-24T17:58:02.924Z,270
2018-12-24T18:03:02.685Z,270
2018-12-24T18:08:02.674Z,270
2018-12-24T18:13:02.602Z,270
2018-12-24T18:18:02.981Z,270
2018-12-24T18:23:02.560Z,248
2018-12-24T18:28:02.867Z,248
2018-12-24T18:33:03.478Z,270
2018-12-24T18:38:03.277Z,270
2018-12-24T18:43:02.711Z,248
2018-12-24T18:48:02.970Z,248
2018-12-24T18:53:02.713Z,270
2018-12-24T18:58:03.380Z,270
2018-12-24T19:03:03.276Z,248
2018-12-24T19:08:02.938Z,248
2018-12-24T19:13:03.186Z,270
2018-12-24T19:18:03.249Z,270
2018-12-24T19:23:02.868Z,270
2018-12-24T19:28:03.459Z,270
2018-12-24T19:33:03.109Z,248
2018-12-24T19:38:02.918Z,248
2018-12-24T19:43:02.558Z,270
2018-12-24T19:48:03.374Z,270
2018-12-24T19:53:03.068Z,270
2018-12-24T19:58:02.672Z,270
2018-12-24T20:03:03.512Z,270
2018-12-24T20:08:03.301Z,270
2018-12-24T20:13:03.537Z,270
2018-12-24T20:18:03.381Z,270
2018-12-24T20:23:02.986Z,270
2018-12-24T20:28:03.462Z,270
2018-12-24T20:33:03.325Z,248
2018-12-24T20:38:02.920Z,248
2018-12-24T20:43:03.139Z,270
2018-12-24T20:48:06.631Z,270
2018-12-24T20:53:03.521Z,248
2018-12-24T20:58:03.224Z,248
2018-12-24T21:03:03.086Z,270
2018-12-24T21:08:03.002Z,270
2018-12-24T21:13:03.199Z,270
2018-12-24T21:18:03.003Z,270
2018-12-24T21:23:03.603Z,270
2018-12-24T21:28:03.050Z,270
2018-12-24T21:33:03.600Z,270
2018-12-24T21:38:03.346Z,270
2018-12-24T21:43:02.887Z,270
2018-12-24T21:48:03.427Z,270
2018-12-24T21:53:02.936Z,270
2018-12-24T21:58:03.340Z,270
2018-12-24T22:03:03.242Z,292
2018-12-24T22:08:03.223Z,292
2018-12-24T22:13:03.267Z,248
2018-12-24T22:18:03.169Z,248
2018-12-24T22:23:02.782Z,248
2018-12-24T22:28:03.422Z,248
2018-12-24T22:33:02.916Z,270
2018-12-24T22:38:03.506Z,270
2018-12-24T22:43:03.216Z,248
2018-12-24T22:48:02.769Z,248
2018-12-24T22:53:03.179Z,270
2018-12-24T22:58:03.327Z,270
2018-12-24T23:03:03.413Z,270
2018-12-24T23:08:02.847Z,270
2018-12-24T23:13:03.363Z,270
2018-12-24T23:18:03.477Z,270
2018-12-24T23:23:03.244Z,270
2018-12-24T23:28:03.042Z,270
2018-12-24T23:33:03.601Z,292
2018-12-24T23:38:03.269Z,292
2018-12-24T23:43:03.844Z,248
2018-12-24T23:48:03.265Z,248
2018-12-24T23:53:03.118Z,270
2018-12-24T23:58:03.202Z,270
